createdAt,value
2022-07-31T00:01:21.216Z,16.40
2022-07-31T00:03:47.925Z,16.50
2022-07-31T00:06:14.594Z,16.50
2022-07-31T00:08:41.206Z,16.50
2022-07-31T00:11:07.828Z,16.70
2022-07-31T00:13:58.072Z,16.70
2022-07-31T00:16:21.115Z,16.70
2022-07-31T00:18:47.738Z,16.70
2022-07-31T00:21:14.354Z,16.80
2022-07-31T00:23:43.655Z,16.60
2022-07-31T00:26:10.455Z,16.70
2022-07-31T00:28:37.373Z,16.60
2022-07-31T00:31:04.044Z,16.70
2022-07-31T00:33:30.738Z,16.60
2022-07-31T00:35:57.398Z,16.70
2022-07-31T00:38:26.860Z,16.60
2022-07-31T00:40:54.249Z,16.70
2022-07-31T00:43:20.993Z,16.70
2022-07-31T00:45:49.361Z,16.60
2022-07-31T00:48:25.902Z,16.70
2022-07-31T00:50:54.783Z,16.70
2022-07-31T00:53:21.394Z,16.70
2022-07-31T00:55:51.930Z,16.70
2022-07-31T00:58:19.837Z,16.70
2022-07-31T01:00:46.723Z,16.70
2022-07-31T01:03:13.433Z,16.70
2022-07-31T01:05:40.065Z,16.60
2022-07-31T01:08:06.717Z,16.70
2022-07-31T01:10:56.310Z,16.60
2022-07-31T01:13:35.926Z,16.60
2022-07-31T01:16:03.289Z,16.50
2022-07-31T01:18:32.016Z,16.40
2022-07-31T01:21:01.243Z,16.20
2022-07-31T01:23:54.780Z,16.20
2022-07-31T01:26:37.422Z,16.20
2022-07-31T01:29:12.190Z,16.10
2022-07-31T01:31:41.908Z,16.00
2022-07-31T01:34:17.663Z,15.90
2022-07-31T01:36:46.992Z,15.70
2022-07-31T01:39:13.620Z,15.70
2022-07-31T01:41:42.983Z,15.50
2022-07-31T01:44:14.151Z,15.50
2022-07-31T01:46:41.686Z,15.40
2022-07-31T01:49:09.162Z,15.30
2022-07-31T01:51:35.879Z,15.30
2022-07-31T01:54:03.116Z,15.20
2022-07-31T01:56:30.580Z,15.10
2022-07-31T01:58:57.179Z,15.20
2022-07-31T02:01:27.087Z,15.20
2022-07-31T02:03:56.337Z,15.10
2022-07-31T02:06:23.282Z,15.20
2022-07-31T02:08:50.813Z,15.00
2022-07-31T02:11:19.110Z,15.00
2022-07-31T02:13:46.844Z,14.80
2022-07-31T02:16:13.954Z,14.90
2022-07-31T02:18:41.169Z,14.80
2022-07-31T02:21:07.959Z,14.90
2022-07-31T02:23:36.007Z,14.80
2022-07-31T02:26:03.171Z,14.70
2022-07-31T02:28:30.045Z,14.70
2022-07-31T02:30:56.647Z,14.70
2022-07-31T02:33:25.268Z,14.70
2022-07-31T02:35:54.714Z,14.60
2022-07-31T02:38:23.889Z,14.70
2022-07-31T02:40:51.165Z,14.60
2022-07-31T02:43:17.811Z,14.50
2022-07-31T02:45:44.449Z,14.60
2022-07-31T02:48:11.127Z,14.50
2022-07-31T02:50:38.220Z,14.60
2022-07-31T02:53:04.834Z,14.60
2022-07-31T02:55:31.446Z,14.60
2022-07-31T02:57:58.083Z,14.60
2022-07-31T03:00:27.021Z,14.60
2022-07-31T03:02:54.403Z,14.60
2022-07-31T03:05:21.489Z,14.80
2022-07-31T03:07:48.189Z,14.60
2022-07-31T03:10:14.939Z,14.60
2022-07-31T03:12:46.227Z,14.70
2022-07-31T03:15:14.981Z,14.60
2022-07-31T03:17:42.289Z,14.70
2022-07-31T03:20:09.736Z,14.60
2022-07-31T03:22:36.455Z,14.50
2022-07-31T03:25:03.643Z,14.50
2022-07-31T03:27:30.257Z,14.40
2022-07-31T03:29:56.865Z,14.80
2022-07-31T03:32:23.488Z,14.80
2022-07-31T03:34:50.091Z,15.10
2022-07-31T03:37:16.710Z,15.30
2022-07-31T03:39:43.311Z,15.40
2022-07-31T03:42:12.998Z,15.30
2022-07-31T03:44:45.722Z,15.60
2022-07-31T03:47:12.409Z,15.50
2022-07-31T03:49:39.190Z,15.50
2022-07-31T03:52:11.454Z,15.70
2022-07-31T03:54:38.471Z,15.70
2022-07-31T03:57:05.070Z,15.90
2022-07-31T03:59:36.667Z,15.90
2022-07-31T04:02:07.998Z,16.00
2022-07-31T04:04:37.278Z,15.80
2022-07-31T04:07:04.873Z,15.70
2022-07-31T04:09:31.804Z,15.90
2022-07-31T04:11:58.480Z,16.00
2022-07-31T04:14:25.135Z,16.00
2022-07-31T04:16:51.787Z,16.10
2022-07-31T04:19:18.408Z,16.10
2022-07-31T04:21:45.054Z,16.10
2022-07-31T04:24:16.582Z,16.00
2022-07-31T04:26:43.707Z,15.80
2022-07-31T04:29:10.474Z,15.90
2022-07-31T04:31:37.113Z,15.80
2022-07-31T04:34:03.734Z,15.90
2022-07-31T04:36:31.050Z,16.00
2022-07-31T04:38:58.850Z,16.00
2022-07-31T04:41:25.534Z,16.10
2022-07-31T04:43:52.157Z,16.20
2022-07-31T04:46:18.897Z,16.20
2022-07-31T04:48:45.770Z,16.40
2022-07-31T04:51:16.618Z,16.50
2022-07-31T04:53:43.503Z,16.60
2022-07-31T04:56:28.597Z,16.60
2022-07-31T04:58:55.261Z,16.70
2022-07-31T05:01:21.901Z,16.70
2022-07-31T05:03:48.594Z,16.70
2022-07-31T05:06:15.218Z,16.60
2022-07-31T05:08:41.902Z,16.50
2022-07-31T05:11:23.501Z,16.80
2022-07-31T05:13:54.101Z,16.80
2022-07-31T05:16:20.951Z,17.00
2022-07-31T05:18:47.720Z,17.00
2022-07-31T05:21:14.810Z,17.40
2022-07-31T05:23:42.061Z,17.40
2022-07-31T05:26:08.736Z,17.40
2022-07-31T05:28:35.747Z,17.50
2022-07-31T05:31:02.460Z,17.60
2022-07-31T05:33:29.084Z,17.70
2022-07-31T05:35:56.322Z,17.80
2022-07-31T05:38:22.956Z,17.70
2022-07-31T05:40:49.724Z,17.90
2022-07-31T05:43:16.351Z,17.90
2022-07-31T05:45:42.945Z,18.00
2022-07-31T05:48:09.577Z,18.10
2022-07-31T05:50:36.197Z,18.10
2022-07-31T05:53:02.805Z,18.10
2022-07-31T05:55:29.458Z,18.30
2022-07-31T05:57:56.089Z,18.40
2022-07-31T06:00:22.769Z,18.50
2022-07-31T06:02:49.396Z,18.50
2022-07-31T06:05:16.021Z,18.70
2022-07-31T06:07:51.999Z,18.80
2022-07-31T06:10:18.960Z,19.00
2022-07-31T06:12:45.574Z,19.00
2022-07-31T06:15:12.199Z,19.00
2022-07-31T06:17:44.109Z,18.90
2022-07-31T06:20:11.618Z,19.00
2022-07-31T06:22:43.765Z,19.00
2022-07-31T06:25:10.634Z,19.00
2022-07-31T06:27:40.074Z,18.80
2022-07-31T06:30:08.291Z,18.80
2022-07-31T06:32:35.042Z,18.90
2022-07-31T06:35:01.663Z,19.00
2022-07-31T06:37:28.298Z,19.10
2022-07-31T06:39:56.266Z,19.20
2022-07-31T06:42:23.751Z,19.30
2022-07-31T06:44:50.592Z,19.40
2022-07-31T06:47:17.785Z,19.50
2022-07-31T06:49:44.570Z,19.60
2022-07-31T06:52:11.221Z,19.80
2022-07-31T06:54:37.829Z,19.90
2022-07-31T06:57:04.724Z,20.10
2022-07-31T06:59:39.251Z,20.20
2022-07-31T07:02:07.645Z,20.30
2022-07-31T07:04:56.513Z,20.40
2022-07-31T07:07:21.213Z,20.50
2022-07-31T07:09:47.917Z,20.60
2022-07-31T07:12:16.749Z,20.60
2022-07-31T07:14:44.051Z,20.70
2022-07-31T07:17:10.711Z,20.80
2022-07-31T07:19:40.116Z,20.90
2022-07-31T07:22:07.072Z,21.20
2022-07-31T07:24:33.985Z,21.20
2022-07-31T07:27:00.624Z,21.30
2022-07-31T07:29:27.297Z,21.50
2022-07-31T07:31:53.930Z,21.70
2022-07-31T07:34:20.692Z,22.00
2022-07-31T07:36:47.305Z,22.30
2022-07-31T07:39:13.894Z,22.60
2022-07-31T07:41:41.233Z,22.80
2022-07-31T07:44:07.874Z,22.70
2022-07-31T07:55:10.456Z,22.80
2022-07-31T07:57:37.081Z,22.90
2022-07-31T08:00:06.731Z,23.00
2022-07-31T08:02:33.685Z,22.90
2022-07-31T08:05:00.808Z,22.90
2022-07-31T08:07:42.061Z,22.80
2022-07-31T08:10:09.625Z,23.00
2022-07-31T08:12:36.357Z,23.40
2022-07-31T08:22:50.470Z,24.10
2022-07-31T08:25:17.070Z,24.20
2022-07-31T08:27:43.659Z,24.10
2022-07-31T08:30:15.558Z,24.20
2022-07-31T08:32:42.187Z,24.20
2022-07-31T08:35:09.030Z,24.20
2022-07-31T08:38:01.898Z,24.20
2022-07-31T08:40:22.474Z,24.30
2022-07-31T08:42:49.155Z,24.50
2022-07-31T08:45:15.809Z,24.70
2022-07-31T08:47:44.404Z,24.80
2022-07-31T08:50:12.097Z,24.90
2022-07-31T08:52:40.388Z,25.00
2022-07-31T08:55:07.808Z,25.30
2022-07-31T08:57:35.578Z,26.10
2022-07-31T09:00:04.246Z,26.30
2022-07-31T09:02:32.338Z,26.60
2022-07-31T09:04:59.490Z,26.50
2022-07-31T09:07:26.104Z,25.80
2022-07-31T09:09:52.733Z,25.70
2022-07-31T09:12:32.419Z,25.80
2022-07-31T09:15:00.829Z,26.30
2022-07-31T09:17:31.945Z,26.60
2022-07-31T09:19:58.866Z,27.40
2022-07-31T09:22:29.591Z,28.20
2022-07-31T09:25:21.228Z,29.10
2022-07-31T09:27:48.155Z,30.60
2022-07-31T09:30:15.585Z,31.20
2022-07-31T09:32:43.194Z,30.80
2022-07-31T09:35:11.295Z,30.60
2022-07-31T09:37:39.058Z,30.40
2022-07-31T09:40:09.129Z,30.60
2022-07-31T09:42:45.539Z,30.50
2022-07-31T09:45:23.089Z,31.00
2022-07-31T09:48:06.330Z,32.40
2022-07-31T09:50:33.045Z,33.20
2022-07-31T09:53:00.722Z,33.10
2022-07-31T09:55:27.552Z,33.10
2022-07-31T09:57:56.055Z,33.20
2022-07-31T10:00:22.996Z,32.10
2022-07-31T10:02:49.657Z,30.50
2022-07-31T10:05:16.329Z,29.80
2022-07-31T10:07:42.928Z,29.50
2022-07-31T10:10:09.993Z,29.20
2022-07-31T10:12:39.225Z,29.10
2022-07-31T10:15:08.499Z,29.10
2022-07-31T10:17:37.719Z,28.80
2022-07-31T10:20:06.288Z,28.40
2022-07-31T10:22:36.032Z,27.90
2022-07-31T10:25:02.692Z,27.30
2022-07-31T10:27:29.684Z,27.20
2022-07-31T10:29:56.668Z,27.00
2022-07-31T10:32:23.267Z,26.70
2022-07-31T10:34:49.888Z,26.50
2022-07-31T10:37:24.980Z,26.30
2022-07-31T10:40:06.032Z,26.20
2022-07-31T10:42:46.870Z,26.30
2022-07-31T10:45:14.126Z,26.30
2022-07-31T10:47:40.789Z,26.50
2022-07-31T10:50:25.661Z,26.50
2022-07-31T10:52:55.034Z,26.50
2022-07-31T10:55:27.352Z,26.60
2022-07-31T10:57:56.161Z,26.60
2022-07-31T11:00:28.262Z,26.60
2022-07-31T11:02:56.125Z,26.90
2022-07-31T11:05:27.828Z,27.30
2022-07-31T11:08:01.774Z,28.10
2022-07-31T11:10:28.414Z,28.10
2022-07-31T11:13:05.151Z,28.50
2022-07-31T11:15:31.881Z,28.60
2022-07-31T11:18:21.302Z,28.80
2022-07-31T11:20:48.212Z,28.90
2022-07-31T11:23:16.613Z,28.60
2022-07-31T11:25:45.536Z,28.40
2022-07-31T11:28:18.699Z,28.50
2022-07-31T11:30:53.416Z,29.10
2022-07-31T11:33:44.972Z,29.80
2022-07-31T11:36:29.839Z,30.20
2022-07-31T11:38:56.629Z,30.60
2022-07-31T11:41:27.885Z,30.40
2022-07-31T11:43:57.518Z,30.30
2022-07-31T11:46:28.753Z,29.90
2022-07-31T11:48:55.817Z,29.80
2022-07-31T11:51:22.774Z,29.40
2022-07-31T11:53:51.133Z,29.70
2022-07-31T11:56:24.184Z,29.50
2022-07-31T11:58:52.151Z,29.80
2022-07-31T12:01:18.892Z,30.20
2022-07-31T12:03:46.254Z,30.50
2022-07-31T12:06:13.296Z,30.50
2022-07-31T12:08:41.390Z,30.60
2022-07-31T12:11:09.322Z,30.60
2022-07-31T12:13:37.455Z,30.60
2022-07-31T12:16:09.636Z,31.20
2022-07-31T12:18:46.799Z,31.60
2022-07-31T12:21:13.421Z,32.20
2022-07-31T12:23:44.165Z,32.20
2022-07-31T12:26:12.237Z,32.00
2022-07-31T12:28:39.057Z,31.90
2022-07-31T12:31:05.758Z,31.20
2022-07-31T12:33:42.518Z,31.00
2022-07-31T12:36:16.297Z,30.70
2022-07-31T12:38:47.918Z,30.70
2022-07-31T12:41:15.174Z,31.10
2022-07-31T12:43:51.023Z,31.20
2022-07-31T12:46:22.295Z,31.20
2022-07-31T12:48:49.050Z,31.40
2022-07-31T12:51:17.658Z,31.20
2022-07-31T12:53:44.251Z,31.00
2022-07-31T12:56:11.797Z,30.80
2022-07-31T12:58:38.409Z,30.20
2022-07-31T13:01:04.998Z,30.50
2022-07-31T13:03:45.677Z,30.60
2022-07-31T13:06:13.547Z,30.90
2022-07-31T13:08:40.215Z,30.40
2022-07-31T13:11:06.817Z,30.00
2022-07-31T13:13:33.455Z,30.20
2022-07-31T13:16:00.107Z,30.30
2022-07-31T13:18:26.768Z,29.80
2022-07-31T13:20:53.468Z,29.80
2022-07-31T13:23:21.364Z,29.80
2022-07-31T13:25:47.991Z,29.30
2022-07-31T13:28:14.614Z,29.10
2022-07-31T13:30:41.518Z,28.70
2022-07-31T13:33:08.134Z,29.00
2022-07-31T13:35:34.792Z,29.00
2022-07-31T13:38:01.511Z,28.80
2022-07-31T13:40:46.506Z,28.70
2022-07-31T13:43:13.216Z,28.90
2022-07-31T13:45:39.880Z,28.70
2022-07-31T13:48:09.414Z,28.60
2022-07-31T13:50:37.594Z,28.50
2022-07-31T13:53:04.639Z,28.70
2022-07-31T13:55:31.373Z,28.70
2022-07-31T13:57:59.554Z,28.80
2022-07-31T14:00:28.300Z,28.70
2022-07-31T14:02:54.901Z,28.70
2022-07-31T14:05:21.566Z,28.70
2022-07-31T14:07:51.720Z,28.80
2022-07-31T14:10:20.812Z,28.80
2022-07-31T14:12:48.195Z,28.60
2022-07-31T14:15:15.098Z,28.40
2022-07-31T14:17:41.709Z,28.30
2022-07-31T14:20:08.945Z,28.20
2022-07-31T14:22:35.532Z,28.20
2022-07-31T14:25:02.143Z,28.30
2022-07-31T14:27:28.814Z,28.60
2022-07-31T14:29:55.497Z,28.90
2022-07-31T14:32:22.407Z,28.90
2022-07-31T14:34:49.912Z,29.10
2022-07-31T14:37:16.601Z,29.50
2022-07-31T14:39:43.423Z,30.40
2022-07-31T14:42:10.537Z,31.30
2022-07-31T14:44:38.181Z,31.80
2022-07-31T14:47:05.130Z,31.90
2022-07-31T14:50:06.453Z,31.10
2022-07-31T14:52:18.791Z,31.10
2022-07-31T14:54:45.395Z,31.20
2022-07-31T14:57:12.156Z,31.50
2022-07-31T14:59:38.892Z,31.20
2022-07-31T15:02:05.913Z,31.90
2022-07-31T15:04:32.620Z,32.40
2022-07-31T15:07:19.211Z,32.80
2022-07-31T15:09:46.702Z,33.00
2022-07-31T15:12:16.695Z,33.00
2022-07-31T15:14:43.981Z,32.30
2022-07-31T15:17:10.609Z,32.10
2022-07-31T15:19:37.246Z,32.10
2022-07-31T15:22:10.446Z,31.50
2022-07-31T15:24:49.229Z,31.30
2022-07-31T15:27:21.492Z,31.80
2022-07-31T15:30:04.405Z,31.80
2022-07-31T15:32:38.007Z,32.10
2022-07-31T15:35:06.045Z,31.80
2022-07-31T15:37:36.777Z,31.00
2022-07-31T15:40:05.426Z,31.00
2022-07-31T15:42:32.450Z,31.00
2022-07-31T15:44:59.116Z,31.60
2022-07-31T15:47:25.756Z,31.30
2022-07-31T15:49:52.379Z,30.90
2022-07-31T15:52:19.680Z,30.60
2022-07-31T15:54:46.834Z,30.40
2022-07-31T15:57:13.732Z,30.10
2022-07-31T15:59:41.582Z,30.00
2022-07-31T16:02:08.220Z,29.80
2022-07-31T16:04:36.610Z,29.90
2022-07-31T16:08:29.415Z,30.70
2022-07-31T16:10:03.874Z,31.40
2022-07-31T16:12:43.022Z,31.60
2022-07-31T16:15:11.378Z,31.30
2022-07-31T16:17:38.089Z,30.80
2022-07-31T16:20:09.689Z,30.40
2022-07-31T16:22:37.054Z,29.40
2022-07-31T16:25:04.236Z,29.00
2022-07-31T16:27:30.878Z,28.80
2022-07-31T16:29:59.896Z,28.90
2022-07-31T16:32:28.832Z,28.90
2022-07-31T16:35:00.240Z,28.80
2022-07-31T16:37:51.876Z,28.80
2022-07-31T16:40:28.030Z,28.80
2022-07-31T16:43:01.424Z,28.70
2022-07-31T16:45:29.105Z,28.60
2022-07-31T16:47:55.739Z,28.50
2022-07-31T16:50:22.542Z,28.50
2022-07-31T16:52:52.706Z,28.50
2022-07-31T16:55:46.106Z,28.60
2022-07-31T16:58:11.002Z,28.60
2022-07-31T17:00:38.889Z,28.70
2022-07-31T17:03:05.662Z,28.70
2022-07-31T17:05:32.384Z,28.70
2022-07-31T17:07:59.173Z,28.80
2022-07-31T17:10:26.184Z,28.90
2022-07-31T17:12:53.880Z,28.80
2022-07-31T17:15:20.672Z,28.80
2022-07-31T17:17:47.302Z,28.80
2022-07-31T17:20:13.975Z,28.30
2022-07-31T17:22:41.692Z,28.00
2022-07-31T17:25:10.163Z,28.00
2022-07-31T17:27:36.789Z,27.80
2022-07-31T17:30:04.110Z,27.60
2022-07-31T17:32:32.316Z,27.60
2022-07-31T17:38:18.703Z,27.40
2022-07-31T17:40:46.797Z,27.40
2022-07-31T17:43:14.063Z,27.40
2022-07-31T17:45:59.551Z,27.40
2022-07-31T17:48:28.006Z,27.30
2022-07-31T17:50:54.656Z,27.20
2022-07-31T17:53:21.290Z,27.20
2022-07-31T17:55:49.510Z,27.20
2022-07-31T17:58:16.152Z,27.20
2022-07-31T18:00:42.838Z,27.20
2022-07-31T18:03:09.463Z,27.20
2022-07-31T18:05:36.077Z,27.20
2022-07-31T18:08:02.717Z,27.10
2022-07-31T18:10:53.045Z,27.00
2022-07-31T18:13:16.070Z,26.90
2022-07-31T18:15:43.160Z,26.90
2022-07-31T18:18:09.766Z,26.80
2022-07-31T18:20:36.394Z,26.70
2022-07-31T18:23:03.106Z,26.70
2022-07-31T18:25:29.720Z,26.60
2022-07-31T18:27:57.156Z,26.60
2022-07-31T18:30:23.817Z,26.50
2022-07-31T18:32:57.126Z,26.40
2022-07-31T18:35:23.764Z,26.30
2022-07-31T18:37:50.378Z,26.30
2022-07-31T18:40:17.111Z,26.20
2022-07-31T18:42:43.730Z,26.10
2022-07-31T18:45:10.523Z,26.00
2022-07-31T18:47:37.499Z,25.90
2022-07-31T18:51:01.466Z,25.70
2022-07-31T18:52:51.946Z,25.60
2022-07-31T18:55:18.569Z,25.40
2022-07-31T18:57:45.197Z,25.30
2022-07-31T19:00:12.308Z,25.10
2022-07-31T19:02:38.957Z,25.00
2022-07-31T19:05:07.375Z,24.90
2022-07-31T19:07:40.398Z,24.80
2022-07-31T19:10:07.817Z,24.70
2022-07-31T19:12:35.318Z,24.60
2022-07-31T19:15:03.204Z,24.50
2022-07-31T19:17:43.988Z,24.40
2022-07-31T19:20:14.916Z,24.20
2022-07-31T19:22:58.947Z,24.10
2022-07-31T19:25:25.629Z,24.00
2022-07-31T19:27:52.242Z,23.90
2022-07-31T19:30:18.862Z,23.80
2022-07-31T19:32:45.501Z,23.60
2022-07-31T19:35:12.165Z,23.60
2022-07-31T19:37:38.832Z,23.50
2022-07-31T19:40:06.287Z,23.30
2022-07-31T19:42:32.936Z,23.20
2022-07-31T19:44:59.599Z,23.10
2022-07-31T19:47:26.267Z,23.00
2022-07-31T19:49:53.194Z,22.80
2022-07-31T19:52:19.843Z,22.70
2022-07-31T19:54:46.464Z,22.60
2022-07-31T19:57:13.081Z,22.40
2022-07-31T19:59:39.825Z,22.30
2022-07-31T20:02:06.933Z,22.20
2022-07-31T20:04:36.378Z,22.10
2022-07-31T20:07:03.046Z,22.00
2022-07-31T20:09:31.086Z,21.90
2022-07-31T20:11:57.795Z,21.70
2022-07-31T20:14:24.457Z,21.60
2022-07-31T20:16:51.071Z,21.60
2022-07-31T20:19:17.679Z,21.50
2022-07-31T20:21:44.298Z,21.30
2022-07-31T20:24:11.694Z,21.20
2022-07-31T20:26:38.357Z,21.00
2022-07-31T20:29:05.401Z,21.00
2022-07-31T20:31:33.013Z,20.90
2022-07-31T20:33:59.629Z,20.80
2022-07-31T20:36:27.261Z,20.60
2022-07-31T20:38:54.144Z,20.60
2022-07-31T20:41:20.889Z,20.50
2022-07-31T20:43:47.508Z,20.40
2022-07-31T20:46:15.686Z,20.30
2022-07-31T20:48:44.053Z,20.20
2022-07-31T20:51:15.915Z,20.00
2022-07-31T20:53:43.926Z,20.00
2022-07-31T20:56:10.813Z,19.90
2022-07-31T20:58:37.433Z,19.90
2022-07-31T21:01:04.245Z,19.80
2022-07-31T21:03:30.905Z,19.70
2022-07-31T21:05:57.558Z,19.60
2022-07-31T21:08:24.187Z,19.50
2022-07-31T21:10:51.074Z,19.50
2022-07-31T21:13:17.773Z,19.30
2022-07-31T21:15:45.325Z,19.30
2022-07-31T21:18:12.841Z,19.20
2022-07-31T21:20:50.123Z,19.20
2022-07-31T21:23:19.463Z,19.10
2022-07-31T21:25:46.360Z,19.10
2022-07-31T21:28:13.106Z,19.10
2022-07-31T21:30:40.040Z,19.10
2022-07-31T21:33:07.326Z,19.10
2022-07-31T21:35:37.195Z,19.10
2022-07-31T21:38:04.485Z,19.10
2022-07-31T21:40:33.828Z,19.00
2022-07-31T21:43:00.699Z,19.00
2022-07-31T21:45:38.428Z,19.00
2022-07-31T21:48:15.226Z,19.00
2022-07-31T21:50:42.630Z,18.90
2022-07-31T21:53:09.256Z,18.90
2022-07-31T21:55:36.839Z,18.80
2022-07-31T21:58:03.957Z,18.80
2022-07-31T22:00:30.602Z,18.70
2022-07-31T22:02:57.611Z,18.70
2022-07-31T22:05:42.803Z,18.60
2022-07-31T22:08:09.434Z,18.60
2022-07-31T22:10:36.047Z,18.60
2022-07-31T22:13:02.684Z,18.60
2022-07-31T22:15:50.378Z,18.60
2022-07-31T22:18:16.240Z,18.60
2022-07-31T22:20:43.176Z,18.60
2022-07-31T22:23:10.939Z,18.60
2022-07-31T22:25:38.530Z,18.60
2022-07-31T22:28:07.251Z,18.60
2022-07-31T22:30:34.047Z,18.60
2022-07-31T22:33:00.988Z,18.60
2022-07-31T22:35:27.978Z,18.60
2022-07-31T22:37:54.641Z,18.60
2022-07-31T22:40:22.122Z,18.60
2022-07-31T22:42:57.524Z,18.50
2022-07-31T22:45:25.064Z,18.50
2022-07-31T22:47:51.832Z,18.40
2022-07-31T22:50:18.545Z,18.40
2022-07-31T22:52:45.257Z,18.40
2022-07-31T22:55:12.010Z,18.40
2022-07-31T22:57:40.818Z,18.30
2022-07-31T23:00:08.977Z,18.30
2022-07-31T23:02:35.796Z,18.20
2022-07-31T23:05:02.524Z,18.20
2022-07-31T23:07:29.155Z,18.20
2022-07-31T23:09:55.836Z,18.20
2022-07-31T23:12:22.489Z,18.20
2022-07-31T23:14:54.995Z,18.20
2022-07-31T23:17:23.215Z,18.30
2022-07-31T23:19:53.830Z,18.30
2022-07-31T23:22:33.448Z,18.40
2022-07-31T23:25:10.298Z,18.50
2022-07-31T23:27:36.917Z,18.50
2022-07-31T23:30:03.738Z,18.50
2022-07-31T23:32:30.381Z,18.50
2022-07-31T23:34:57.762Z,18.50
2022-07-31T23:37:24.375Z,18.40
2022-07-31T23:39:52.062Z,18.30
2022-07-31T23:42:37.043Z,18.20
2022-07-31T23:45:05.463Z,18.20
2022-07-31T23:47:45.454Z,18.10
2022-07-31T23:50:13.627Z,18.10
2022-07-31T23:52:40.303Z,18.10
2022-07-31T23:55:07.157Z,18.10
2022-07-31T23:57:34.680Z,18.20
